Time;durP1;ratioP1;P1;durP2;ratioP2;P2;SDS_P1;SDS_P2;PMS_P1;PMS_P2;Temp;Humidity;BMP_temperature;BMP_pressure;BME280_temperature;BME280_humidity;BME280_pressure;Samples;Min_cycle;Max_cycle;Signal;HPM_P1;HPM_P2
2023/05/19 00:00:07;;;;;;;;;;;14.20;99.50;14.40;99715.00;;;;343406;28;83360;-91
2023/05/19 00:00:20;;;;;;;;;;;14.20;99.50;14.50;99715.00;;;;340331;28;90864;-92
2023/05/19 00:00:33;;;;;;;;;;;14.20;99.50;14.50;99722.00;;;;339244;28;82594;-92
2023/05/19 00:00:45;;;;;;;;;;;14.20;99.60;14.50;99707.00;;;;340176;28;89621;-91
2023/05/19 00:01:00;;;;;;;;;;;14.20;99.60;14.60;99710.00;;;;339397;28;83386;-92
2023/05/19 00:01:13;;;;;;;;;;;14.20;99.50;14.60;99712.00;;;;338701;28;88111;-91
2023/05/19 00:01:27;;;;;;;;;;;14.20;99.50;14.60;99711.00;;;;339459;28;83138;-91
2023/05/19 00:01:42;;;;;;;;;;;14.30;99.50;14.60;99717.00;;;;341268;28;91314;-91
2023/05/19 00:01:54;;;;;;;;;;;14.30;99.80;14.60;99717.00;;;;340403;28;83651;-91
2023/05/19 00:02:07;;;;;;;;;;;14.30;99.50;14.50;99714.00;;;;340821;28;88191;-91
2023/05/19 00:02:20;;;;;;;;;;;14.30;99.60;14.60;99712.00;;;;341875;28;82343;-91
2023/05/19 00:02:32;;;;;;;;;;;14.20;99.50;14.50;99717.00;;;;340132;28;89566;-92
2023/05/19 00:02:45;;;;;;;;;;;14.20;99.50;14.60;99720.00;;;;343329;28;83282;-92
2023/05/19 00:02:59;;;;;;;;;;;14.30;99.60;14.50;99711.00;;;;341530;28;89611;-91
2023/05/19 00:03:11;;;;;;;;;;;14.20;99.50;14.60;99719.00;;;;340675;28;83420;-92
2023/05/19 00:03:24;;;;;;;;;;;14.20;99.60;14.60;99720.00;;;;340145;28;90254;-91
2023/05/19 00:03:39;;;;;;;;;;;14.30;99.60;14.60;99718.00;;;;339478;28;83459;-91
2023/05/19 00:03:52;;;;;;;;;;;14.20;99.60;14.60;99731.00;;;;342508;28;90495;-91
2023/05/19 00:04:05;;;;;;;;;;;14.20;99.60;14.50;99716.00;;;;342120;28;82600;-91
2023/05/19 00:04:18;;;;;;;;;;;14.20;99.70;14.50;99716.00;;;;342863;28;89399;-91
2023/05/19 00:04:30;;;;;;;;;;;14.20;99.70;14.50;99719.00;;;;344811;28;82334;-91
2023/05/19 00:04:42;;;;;;;;;;;14.20;99.70;14.60;99713.00;;;;342167;28;87665;-90
2023/05/19 00:04:54;;;;;;;;;;;14.20;99.70;14.60;99720.00;;;;340769;28;82650;-91
2023/05/19 00:05:06;;;;;;;;;;;14.20;99.60;14.60;99718.00;;;;343205;28;87289;-91
2023/05/19 00:05:19;;;;;;;;;;;14.20;99.60;14.60;99716.00;;;;343607;28;82605;-91
2023/05/19 00:05:31;;;;;;;;;;;14.20;99.60;14.60;99715.00;;;;341969;28;88483;-91
2023/05/19 00:05:44;;;;;;;;;;;14.30;99.60;14.50;99722.00;;;;343456;28;83464;-90
2023/05/19 00:05:57;;;;;;;;;;;14.20;99.50;14.50;99719.00;;;;342055;28;88080;-91
2023/05/19 00:06:09;;;;;;;;;;;14.20;99.50;14.50;99711.00;;;;341382;28;82429;-90
2023/05/19 00:06:25;;;;;;;;;;;14.20;99.50;14.40;99712.00;;;;344856;28;87591;-89
2023/05/19 00:06:37;;;;;;;;;;;14.20;99.60;14.50;99711.00;;;;345301;28;82475;-90
2023/05/19 00:06:50;;;;;;;;;;;14.20;99.60;14.50;99717.00;;;;343742;28;87689;-90
2023/05/19 00:07:02;;;;;;;;;;;14.20;99.70;14.50;99722.00;;;;343846;28;82433;-92
2023/05/19 00:07:16;;;;;;;;;;;14.20;99.60;14.50;99712.00;;;;343376;28;90035;-90
2023/05/19 00:07:30;;;;;;;;;;;14.20;99.60;14.50;99713.00;;;;342615;28;82415;-90
2023/05/19 00:07:42;;;;;;;;;;;14.20;99.60;14.50;99719.00;;;;343558;28;88565;-89
2023/05/19 00:07:53;;;;;;;;;;;14.20;99.70;14.50;99706.00;;;;342629;28;82472;-90
2023/05/19 00:08:05;;;;;;;;;;;14.20;99.70;14.40;99716.00;;;;343458;28;89397;-91
2023/05/19 00:08:17;;;;;;;;;;;14.20;99.70;14.50;99717.00;;;;342360;28;83409;-90
2023/05/19 00:08:29;;;;;;;;;;;14.20;99.70;14.50;99712.00;;;;343579;28;88468;-90
2023/05/19 00:08:41;;;;;;;;;;;14.20;99.70;14.50;99713.00;;;;345894;28;82406;-91
2023/05/19 00:09:14;;;;;;;;;;;14.20;99.60;14.50;99710.00;;;;342086;28;89527;-90
2023/05/19 00:09:26;;;;;;;;;;;14.20;99.70;14.50;99719.00;;;;340962;28;82569;-89
2023/05/19 00:09:38;;;;;;;;;;;14.20;99.70;14.50;99717.00;;;;340456;28;87222;-88
2023/05/19 00:09:50;;;;;;;;;;;14.20;99.60;14.40;99718.00;;;;342295;28;82560;-91
2023/05/19 00:10:02;;;;;;;;;;;14.20;99.70;14.40;99713.00;;;;340602;28;88325;-93
2023/05/19 00:10:15;;;;;;;;;;;14.20;99.70;14.40;99718.00;;;;342202;28;83429;-91
2023/05/19 00:10:30;;;;;;;;;;;14.20;99.70;14.50;99708.00;;;;341676;28;90624;-91
2023/05/19 00:10:43;;;;;;;;;;;14.20;99.70;14.50;99708.00;;;;342170;28;82539;-92
2023/05/19 00:10:55;;;;;;;;;;;14.20;99.60;14.50;99709.00;;;;340385;28;87263;-92
2023/05/19 00:11:07;;;;;;;;;;;14.20;99.70;14.50;99714.00;;;;340688;28;83473;-91
2023/05/19 00:11:21;;;;;;;;;;;14.20;99.70;14.50;99718.00;;;;341802;28;89041;-91
2023/05/19 00:11:36;;;;;;;;;;;14.20;99.70;14.50;99714.00;;;;340767;28;82452;-91
2023/05/19 00:11:49;;;;;;;;;;;14.20;99.90;14.40;99717.00;;;;341413;28;90114;-91
2023/05/19 00:12:01;;;;;;;;;;;14.20;99.60;14.30;99710.00;;;;340630;28;83503;-91
2023/05/19 00:12:13;;;;;;;;;;;14.20;99.60;14.30;99712.00;;;;339155;28;88937;-91
2023/05/19 00:12:25;;;;;;;;;;;14.20;99.70;14.40;99712.00;;;;340960;28;82533;-91
2023/05/19 00:12:38;;;;;;;;;;;14.20;99.70;14.40;99721.00;;;;342679;28;89475;-91
2023/05/19 00:12:50;;;;;;;;;;;14.10;99.70;14.40;99713.00;;;;343299;28;83610;-92
2023/05/19 00:13:04;;;;;;;;;;;14.10;99.70;14.30;99715.00;;;;341592;28;89677;-92
2023/05/19 00:13:16;;;;;;;;;;;14.10;99.70;14.30;99712.00;;;;343218;28;83520;-91
2023/05/19 00:13:28;;;;;;;;;;;14.10;99.80;14.40;99715.00;;;;342925;28;89780;-92
2023/05/19 00:13:40;;;;;;;;;;;14.10;99.80;14.30;99713.00;;;;340796;28;82432;-91
2023/05/19 00:13:53;;;;;;;;;;;14.10;99.80;14.30;99714.00;;;;340337;28;87838;-92
2023/05/19 00:14:07;;;;;;;;;;;14.10;99.80;14.40;99713.00;;;;340499;28;83498;-91
2023/05/19 00:14:19;;;;;;;;;;;14.10;99.80;14.40;99708.00;;;;341462;28;90259;-91
2023/05/19 00:14:31;;;;;;;;;;;14.10;99.90;14.40;99712.00;;;;340700;28;83458;-91
2023/05/19 00:14:43;;;;;;;;;;;14.10;99.90;14.40;99705.00;;;;339016;28;90226;-91
2023/05/19 00:14:55;;;;;;;;;;;14.10;99.80;14.40;99715.00;;;;341910;28;83478;-90
2023/05/19 00:15:09;;;;;;;;;;;14.10;99.80;14.30;99714.00;;;;341528;28;89462;-91
2023/05/19 00:15:21;;;;;;;;;;;14.10;99.90;14.40;99711.00;;;;341948;28;83500;-91
2023/05/19 00:15:33;;;;;;;;;;;14.10;99.80;14.40;99717.00;;;;340089;28;88513;-91
2023/05/19 00:15:46;;;;;;;;;;;14.10;99.80;14.40;99708.00;;;;339206;28;82664;-91
2023/05/19 00:15:58;;;;;;;;;;;14.10;99.80;14.50;99717.00;;;;341551;28;91407;-91
2023/05/19 00:16:11;;;;;;;;;;;14.10;99.80;14.50;99711.00;;;;340845;28;82398;-91
2023/05/19 00:16:23;;;;;;;;;;;14.10;99.90;14.50;99709.00;;;;339066;28;86729;-91
2023/05/19 00:16:41;;;;;;;;;;;14.10;99.80;14.30;99713.00;;;;340807;28;82395;-91
2023/05/19 00:16:54;;;;;;;;;;;14.10;99.90;14.40;99710.00;;;;341716;28;90006;-92
2023/05/19 00:17:10;;;;;;;;;;;14.10;99.80;14.40;99706.00;;;;340651;28;82572;-92
2023/05/19 00:17:22;;;;;;;;;;;14.10;99.80;14.40;99706.00;;;;338987;28;89283;-92
2023/05/19 00:17:35;;;;;;;;;;;14.10;99.80;14.30;99702.00;;;;338915;28;83529;-91
2023/05/19 00:17:47;;;;;;;;;;;14.10;99.80;14.30;99700.00;;;;339993;28;88584;-91
2023/05/19 00:17:59;;;;;;;;;;;14.10;99.90;14.40;99708.00;;;;343317;28;82554;-91
2023/05/19 00:18:12;;;;;;;;;;;14.10;99.90;14.40;99708.00;;;;343057;28;88369;-91
2023/05/19 00:18:25;;;;;;;;;;;14.10;99.90;14.30;99707.00;;;;339574;28;84687;-90
2023/05/19 00:18:37;;;;;;;;;;;14.10;99.90;14.40;99713.00;;;;341763;28;89110;-91
2023/05/19 00:18:50;;;;;;;;;;;14.10;99.90;14.40;99707.00;;;;343550;28;83450;-91
2023/05/19 00:19:03;;;;;;;;;;;14.10;99.80;14.40;99709.00;;;;341734;28;87548;-90
2023/05/19 00:19:15;;;;;;;;;;;14.10;99.90;14.40;99710.00;;;;341883;28;83940;-91
2023/05/19 00:19:31;;;;;;;;;;;14.10;99.90;14.40;99705.00;;;;341781;28;89498;-91
2023/05/19 00:19:43;;;;;;;;;;;14.10;99.90;14.40;99716.00;;;;342125;28;82563;-90
2023/05/19 00:19:55;;;;;;;;;;;14.00;99.90;14.30;99713.00;;;;340536;28;88322;-90
2023/05/19 00:20:08;;;;;;;;;;;14.10;99.90;14.30;99704.00;;;;343605;28;82398;-90
2023/05/19 00:20:20;;;;;;;;;;;14.10;99.90;14.30;99710.00;;;;340449;28;89213;-90
2023/05/19 00:20:32;;;;;;;;;;;14.00;99.90;14.30;99707.00;;;;340801;28;83418;-91
2023/05/19 00:20:44;;;;;;;;;;;14.00;99.90;14.30;99710.00;;;;340496;28;89122;-91
2023/05/19 00:20:56;;;;;;;;;;;14.00;99.90;14.40;99699.00;;;;339332;28;82500;-91
2023/05/19 00:21:08;;;;;;;;;;;14.00;99.90;14.30;99704.00;;;;339051;28;88076;-91
2023/05/19 00:21:20;;;;;;;;;;;14.00;99.90;14.30;99707.00;;;;340664;28;83503;-91
2023/05/19 00:21:32;;;;;;;;;;;14.00;99.90;14.40;99703.00;;;;340177;28;91120;-90
2023/05/19 00:21:44;;;;;;;;;;;14.00;99.90;14.30;99702.00;;;;340764;28;82361;-90
2023/05/19 00:21:56;;;;;;;;;;;14.00;99.90;14.40;99709.00;;;;340618;28;88429;-91
2023/05/19 00:22:07;;;;;;;;;;;14.00;99.90;14.40;99699.00;;;;342011;28;82579;-90
2023/05/19 00:22:19;;;;;;;;;;;14.00;99.90;14.30;99712.00;;;;340194;28;89612;-90
2023/05/19 00:22:31;;;;;;;;;;;14.00;99.90;14.20;99707.00;;;;340618;28;83397;-92
2023/05/19 00:22:43;;;;;;;;;;;14.00;99.90;14.30;99696.00;;;;341639;28;92382;-91
2023/05/19 00:22:55;;;;;;;;;;;14.00;99.90;14.30;99705.00;;;;340713;28;83482;-91
2023/05/19 00:23:07;;;;;;;;;;;14.00;99.90;14.20;99705.00;;;;339037;28;91194;-89
2023/05/19 00:23:19;;;;;;;;;;;14.00;99.90;14.30;99701.00;;;;341901;28;83526;-92
2023/05/19 00:23:31;;;;;;;;;;;14.00;99.90;14.30;99700.00;;;;342976;28;90502;-90
2023/05/19 00:23:42;;;;;;;;;;;14.00;99.90;14.30;99695.00;;;;342248;28;83464;-90
2023/05/19 00:23:54;;;;;;;;;;;14.00;99.90;14.30;99701.00;;;;340274;28;91180;-92
2023/05/19 00:24:06;;;;;;;;;;;14.00;99.90;14.40;99695.00;;;;340925;28;82353;-90
2023/05/19 00:24:18;;;;;;;;;;;14.00;99.90;14.40;99707.00;;;;340281;28;89032;-91
2023/05/19 00:24:30;;;;;;;;;;;14.00;99.90;14.40;99693.00;;;;340651;28;84135;-92
2023/05/19 00:24:42;;;;;;;;;;;14.00;99.90;14.30;99695.00;;;;341352;28;92039;-90
2023/05/19 00:24:55;;;;;;;;;;;14.00;99.90;14.30;99701.00;;;;342405;28;83318;-91
2023/05/19 00:25:08;;;;;;;;;;;14.00;99.90;14.40;99704.00;;;;341547;28;91459;-90
2023/05/19 00:25:20;;;;;;;;;;;14.00;99.90;14.40;99695.00;;;;343598;28;82533;-91
2023/05/19 00:25:32;;;;;;;;;;;14.00;99.90;14.40;99696.00;;;;340435;28;88301;-91
2023/05/19 00:25:44;;;;;;;;;;;14.00;99.90;14.40;99699.00;;;;342000;28;83505;-91
2023/05/19 00:25:56;;;;;;;;;;;14.00;99.90;14.40;99699.00;;;;340382;28;89380;-91
2023/05/19 00:26:08;;;;;;;;;;;14.00;99.90;14.40;99700.00;;;;340778;28;83565;-91
2023/05/19 00:26:23;;;;;;;;;;;14.00;99.90;14.40;99696.00;;;;341734;28;91424;-91
2023/05/19 00:26:35;;;;;;;;;;;14.00;99.90;14.30;99702.00;;;;342235;28;82496;-91
2023/05/19 00:26:46;;;;;;;;;;;14.00;99.90;14.30;99693.00;;;;340490;28;91632;-91
2023/05/19 00:26:58;;;;;;;;;;;14.00;99.90;14.30;99699.00;;;;340774;28;82537;-90
2023/05/19 00:27:10;;;;;;;;;;;14.00;99.90;14.30;99694.00;;;;338934;28;92463;-90
2023/05/19 00:27:22;;;;;;;;;;;14.00;99.90;14.30;99697.00;;;;336890;28;83377;-91
2023/05/19 00:27:34;;;;;;;;;;;14.00;99.90;14.30;99702.00;;;;339110;28;88387;-91
2023/05/19 00:27:46;;;;;;;;;;;14.00;99.90;14.30;99701.00;;;;340503;28;82575;-91
2023/05/19 00:27:58;;;;;;;;;;;14.00;99.90;14.30;99699.00;;;;341605;28;89125;-90
2023/05/19 00:28:09;;;;;;;;;;;14.00;99.90;14.20;99696.00;;;;343470;28;82576;-91
2023/05/19 00:28:21;;;;;;;;;;;14.00;99.90;14.30;99697.00;;;;340307;28;88373;-91
2023/05/19 00:28:33;;;;;;;;;;;14.00;99.90;14.30;99694.00;;;;339598;28;82540;-91
2023/05/19 00:28:45;;;;;;;;;;;14.00;99.90;14.30;99690.00;;;;341865;28;87944;-91
2023/05/19 00:28:57;;;;;;;;;;;14.00;99.90;14.30;99701.00;;;;342433;28;83267;-92
2023/05/19 00:29:09;;;;;;;;;;;14.00;99.90;14.30;99691.00;;;;340187;28;91620;-91
2023/05/19 00:29:21;;;;;;;;;;;14.00;99.90;14.40;99691.00;;;;340784;28;83380;-91
2023/05/19 00:29:32;;;;;;;;;;;14.00;99.90;14.40;99698.00;;;;341668;28;90397;-91
2023/05/19 00:29:44;;;;;;;;;;;14.00;99.90;14.40;99702.00;;;;340723;28;83483;-91
2023/05/19 00:29:56;;;;;;;;;;;14.00;99.90;14.40;99700.00;;;;340418;28;91806;-90
2023/05/19 00:30:08;;;;;;;;;;;14.00;99.90;14.40;99701.00;;;;343568;28;83297;-91
2023/05/19 00:30:21;;;;;;;;;;;14.00;99.90;14.40;99699.00;;;;340311;28;91955;-91
2023/05/19 00:30:33;;;;;;;;;;;14.00;99.90;14.50;99696.00;;;;340623;28;82558;-90
2023/05/19 00:30:45;;;;;;;;;;;14.00;99.90;14.40;99697.00;;;;341691;28;89024;-91
2023/05/19 00:30:57;;;;;;;;;;;14.00;99.90;14.30;99699.00;;;;342272;28;83273;-91
2023/05/19 00:31:09;;;;;;;;;;;14.00;99.90;14.40;99699.00;;;;340290;28;92541;-91
2023/05/19 00:31:20;;;;;;;;;;;14.00;99.90;14.30;99701.00;;;;343287;28;83607;-90
2023/05/19 00:31:32;;;;;;;;;;;14.00;99.90;14.30;99700.00;;;;341651;28;91624;-90
2023/05/19 00:31:45;;;;;;;;;;;14.00;99.90;14.20;99701.00;;;;339534;28;82616;-90
2023/05/19 00:31:57;;;;;;;;;;;14.00;99.90;14.20;99698.00;;;;339058;28;88726;-91
2023/05/19 00:32:09;;;;;;;;;;;14.00;99.90;14.30;99703.00;;;;342014;28;82628;-90
2023/05/19 00:32:21;;;;;;;;;;;14.00;99.90;14.40;99704.00;;;;341479;28;87313;-91
2023/05/19 00:32:33;;;;;;;;;;;14.00;99.90;14.40;99698.00;;;;343585;28;83869;-91
2023/05/19 00:32:45;;;;;;;;;;;14.00;99.90;14.30;99700.00;;;;341780;28;91538;-90
2023/05/19 00:32:57;;;;;;;;;;;14.00;99.90;14.40;99695.00;;;;339749;28;82395;-92
2023/05/19 00:33:09;;;;;;;;;;;14.00;99.90;14.40;99703.00;;;;340361;28;91450;-91
2023/05/19 00:33:21;;;;;;;;;;;14.00;99.90;14.40;99698.00;;;;340585;28;82576;-91
2023/05/19 00:33:33;;;;;;;;;;;14.00;99.90;14.40;99695.00;;;;340430;28;90173;-91
2023/05/19 00:33:45;;;;;;;;;;;14.00;99.90;14.40;99699.00;;;;342306;28;82433;-90
2023/05/19 00:33:57;;;;;;;;;;;14.00;99.90;14.30;99691.00;;;;340354;28;90390;-90
2023/05/19 00:34:08;;;;;;;;;;;14.00;99.90;14.30;99697.00;;;;340738;28;82565;-91
2023/05/19 00:34:20;;;;;;;;;;;14.00;99.90;14.40;99694.00;;;;341865;28;87979;-91
2023/05/19 00:34:33;;;;;;;;;;;14.00;99.90;14.30;99694.00;;;;339517;28;83355;-91
2023/05/19 00:34:47;;;;;;;;;;;14.00;99.90;14.40;99700.00;;;;340276;28;88938;-91
2023/05/19 00:34:59;;;;;;;;;;;14.00;99.90;14.30;99696.00;;;;340653;28;82670;-90
2023/05/19 00:35:10;;;;;;;;;;;14.00;99.90;14.40;99696.00;;;;340086;28;91160;-91
2023/05/19 00:35:23;;;;;;;;;;;14.00;99.90;14.30;99694.00;;;;340975;28;83299;-91
2023/05/19 00:35:34;;;;;;;;;;;14.00;99.90;14.30;99696.00;;;;341721;28;89620;-90
2023/05/19 00:35:46;;;;;;;;;;;14.00;99.90;14.30;99684.00;;;;342087;28;83544;-91
2023/05/19 00:36:01;;;;;;;;;;;14.00;99.90;14.30;99699.00;;;;338925;28;89343;-91
2023/05/19 00:36:13;;;;;;;;;;;14.00;99.90;14.30;99698.00;;;;340964;28;82413;-91
2023/05/19 00:36:25;;;;;;;;;;;14.00;99.90;14.30;99696.00;;;;340385;28;86909;-91
2023/05/19 00:36:37;;;;;;;;;;;14.00;99.90;14.30;99695.00;;;;338309;28;83331;-91
2023/05/19 00:36:49;;;;;;;;;;;14.00;99.90;14.30;99690.00;;;;337816;28;87706;-91
2023/05/19 00:37:02;;;;;;;;;;;14.00;99.90;14.20;99701.00;;;;339505;28;83086;-91
2023/05/19 00:37:14;;;;;;;;;;;14.00;99.90;14.10;99687.00;;;;339094;28;90582;-91
2023/05/19 00:37:26;;;;;;;;;;;13.90;99.90;14.10;99700.00;;;;339392;28;83439;-91
2023/05/19 00:37:38;;;;;;;;;;;14.00;99.90;14.20;99697.00;;;;340535;28;89137;-90
2023/05/19 00:37:50;;;;;;;;;;;14.00;99.90;14.20;99687.00;;;;340769;28;82582;-91
2023/05/19 00:38:02;;;;;;;;;;;13.90;99.90;14.30;99692.00;;;;339729;28;87207;-90
2023/05/19 00:38:14;;;;;;;;;;;13.90;99.90;14.20;99693.00;;;;342174;28;82422;-91
2023/05/19 00:38:26;;;;;;;;;;;13.90;99.90;14.20;99697.00;;;;340385;28;87779;-91
2023/05/19 00:38:38;;;;;;;;;;;13.90;99.90;14.30;99696.00;;;;341919;28;83552;-89
2023/05/19 00:38:50;;;;;;;;;;;13.90;99.90;14.30;99694.00;;;;341765;28;88860;-91
2023/05/19 00:39:02;;;;;;;;;;;13.90;99.90;14.30;99691.00;;;;341749;28;83544;-90
2023/05/19 00:39:14;;;;;;;;;;;14.00;99.90;14.20;99687.00;;;;341534;28;91810;-91
2023/05/19 00:39:26;;;;;;;;;;;13.90;99.90;14.20;99695.00;;;;342140;28;82648;-91
2023/05/19 00:39:38;;;;;;;;;;;13.90;99.90;14.20;99697.00;;;;341850;28;89696;-91
2023/05/19 00:39:52;;;;;;;;;;;13.90;99.90;14.20;99686.00;;;;342099;28;83405;-91
2023/05/19 00:40:05;;;;;;;;;;;13.90;99.90;14.30;99699.00;;;;341850;28;89406;-90
2023/05/19 00:40:17;;;;;;;;;;;13.90;99.90;14.40;99691.00;;;;341071;28;82391;-91
2023/05/19 00:40:29;;;;;;;;;;;14.00;99.90;14.30;99699.00;;;;341812;28;88790;-91
2023/05/19 00:40:41;;;;;;;;;;;14.00;99.90;14.30;99702.00;;;;343725;28;82529;-89
2023/05/19 00:40:53;;;;;;;;;;;13.90;99.90;14.30;99696.00;;;;341778;28;88380;-91
2023/05/19 00:41:05;;;;;;;;;;;13.90;99.90;14.30;99695.00;;;;340837;28;82596;-91
2023/05/19 00:41:17;;;;;;;;;;;13.90;99.90;14.40;99704.00;;;;342012;28;89375;-90
2023/05/19 00:41:29;;;;;;;;;;;13.90;99.90;14.20;99692.00;;;;342134;28;82595;-91
2023/05/19 00:41:41;;;;;;;;;;;13.90;99.90;14.20;99692.00;;;;341518;28;86851;-91
2023/05/19 00:41:53;;;;;;;;;;;13.90;99.90;14.30;99689.00;;;;339471;28;82539;-90
2023/05/19 00:42:05;;;;;;;;;;;13.90;99.90;14.30;99701.00;;;;341840;28;91079;-91
2023/05/19 00:42:17;;;;;;;;;;;13.90;99.90;14.30;99696.00;;;;340966;28;82423;-91
2023/05/19 00:42:28;;;;;;;;;;;13.90;99.90;14.20;99693.00;;;;341786;28;92082;-91
2023/05/19 00:42:40;;;;;;;;;;;13.90;99.90;14.20;99700.00;;;;343906;28;82452;-90
2023/05/19 00:42:52;;;;;;;;;;;13.90;99.90;14.30;99693.00;;;;342138;28;89635;-90
2023/05/19 00:43:04;;;;;;;;;;;13.90;99.90;14.30;99694.00;;;;344033;28;82457;-90
2023/05/19 00:43:16;;;;;;;;;;;13.90;99.90;14.30;99699.00;;;;343604;28;89348;-90
2023/05/19 00:43:33;;;;;;;;;;;13.90;99.90;14.30;99692.00;;;;341214;28;82424;-91
2023/05/19 00:43:45;;;;;;;;;;;13.90;99.90;14.30;99697.00;;;;342037;28;89752;-91
2023/05/19 00:43:56;;;;;;;;;;;13.90;99.90;14.20;99703.00;;;;342850;28;83347;-92
2023/05/19 00:44:08;;;;;;;;;;;13.90;99.90;14.30;99693.00;;;;339652;28;88095;-91
2023/05/19 00:44:20;;;;;;;;;;;13.90;99.90;14.20;99696.00;;;;342759;28;82436;-90
2023/05/19 00:44:32;;;;;;;;;;;13.90;99.90;14.20;99695.00;;;;343533;28;91841;-91
2023/05/19 00:44:44;;;;;;;;;;;13.90;99.90;14.20;99702.00;;;;343953;28;82575;-91
2023/05/19 00:44:56;;;;;;;;;;;13.90;99.90;14.30;99702.00;;;;342153;28;89541;-90
2023/05/19 00:45:08;;;;;;;;;;;13.90;99.90;14.40;99697.00;;;;341436;28;82539;-91
2023/05/19 00:45:20;;;;;;;;;;;13.90;99.90;14.40;99695.00;;;;343121;28;91113;-91
2023/05/19 00:45:32;;;;;;;;;;;13.90;99.90;14.30;99690.00;;;;341247;28;82515;-90
2023/05/19 00:45:44;;;;;;;;;;;13.90;99.90;14.30;99684.00;;;;343502;28;88472;-89
2023/05/19 00:45:56;;;;;;;;;;;13.90;99.90;14.20;99694.00;;;;344030;28;82538;-89
2023/05/19 00:46:09;;;;;;;;;;;13.90;99.90;14.20;99695.00;;;;343378;28;89476;-88
2023/05/19 00:46:21;;;;;;;;;;;13.90;99.90;14.30;99690.00;;;;342283;28;82547;-89
2023/05/19 00:46:33;;;;;;;;;;;13.90;99.90;14.40;99690.00;;;;342247;28;87983;-91
2023/05/19 00:46:45;;;;;;;;;;;13.90;99.90;14.40;99687.00;;;;343694;28;82421;-91
2023/05/19 00:46:57;;;;;;;;;;;13.90;99.90;14.30;99693.00;;;;341034;28;88129;-90
2023/05/19 00:47:09;;;;;;;;;;;13.90;99.90;14.30;99694.00;;;;344054;28;82533;-90
2023/05/19 00:47:21;;;;;;;;;;;13.90;99.90;14.20;99690.00;;;;342135;28;89341;-89
2023/05/19 00:47:33;;;;;;;;;;;13.90;99.90;14.30;99695.00;;;;342395;28;83059;-91
2023/05/19 00:47:45;;;;;;;;;;;13.90;99.90;14.40;99695.00;;;;342933;28;89326;-92
2023/05/19 00:47:57;;;;;;;;;;;13.90;99.90;14.30;99700.00;;;;345252;28;82499;-90
2023/05/19 00:48:09;;;;;;;;;;;13.90;99.90;14.20;99693.00;;;;339482;28;86741;-89
2023/05/19 00:48:21;;;;;;;;;;;13.90;99.90;14.20;99688.00;;;;343681;28;82513;-90
2023/05/19 00:48:33;;;;;;;;;;;13.90;99.90;14.30;99698.00;;;;343142;28;89459;-91
2023/05/19 00:48:45;;;;;;;;;;;13.90;99.90;14.30;99698.00;;;;344742;28;82540;-91
2023/05/19 00:48:57;;;;;;;;;;;13.90;99.90;14.20;99689.00;;;;343766;28;89478;-91
2023/05/19 00:49:08;;;;;;;;;;;13.90;99.90;14.10;99696.00;;;;342400;28;82452;-91
2023/05/19 00:49:20;;;;;;;;;;;13.90;99.90;14.20;99694.00;;;;341697;28;87982;-91
2023/05/19 00:49:34;;;;;;;;;;;13.90;99.90;14.20;99689.00;;;;341397;28;82447;-90
2023/05/19 00:49:46;;;;;;;;;;;13.90;99.90;14.20;99685.00;;;;341484;28;89565;-91
2023/05/19 00:49:58;;;;;;;;;;;13.90;99.90;14.20;99695.00;;;;342219;28;82426;-91
2023/05/19 00:50:10;;;;;;;;;;;13.90;99.90;14.30;99696.00;;;;342764;28;90834;-90
2023/05/19 00:50:23;;;;;;;;;;;13.90;99.90;14.30;99696.00;;;;340675;28;82479;-90
2023/05/19 00:50:34;;;;;;;;;;;13.90;99.90;14.20;99701.00;;;;341558;28;89502;-91
2023/05/19 00:50:47;;;;;;;;;;;13.90;99.90;14.20;99697.00;;;;343403;28;82649;-91
2023/05/19 00:51:03;;;;;;;;;;;13.90;99.90;14.30;99700.00;;;;341426;28;90485;-91
2023/05/19 00:51:15;;;;;;;;;;;13.90;99.90;14.20;99704.00;;;;340514;28;83566;-91
2023/05/19 00:51:28;;;;;;;;;;;13.90;99.90;14.30;99698.00;;;;341732;28;89628;-92
2023/05/19 00:51:40;;;;;;;;;;;13.90;99.90;14.30;99697.00;;;;343261;28;82600;-90
2023/05/19 00:51:52;;;;;;;;;;;13.90;99.90;14.30;99705.00;;;;340392;28;87981;-91
2023/05/19 00:52:05;;;;;;;;;;;13.90;99.90;14.30;99692.00;;;;342106;28;82585;-91
2023/05/19 00:52:16;;;;;;;;;;;13.90;99.90;14.30;99695.00;;;;340429;28;91567;-91
2023/05/19 00:52:28;;;;;;;;;;;13.90;99.90;14.20;99701.00;;;;341962;28;83573;-91
2023/05/19 00:52:40;;;;;;;;;;;13.90;99.90;14.10;99698.00;;;;341483;28;89134;-91
2023/05/19 00:52:52;;;;;;;;;;;13.90;99.90;14.10;99704.00;;;;342442;28;83326;-91
2023/05/19 00:53:04;;;;;;;;;;;13.90;99.90;14.10;99689.00;;;;342961;28;88392;-91
2023/05/19 00:53:16;;;;;;;;;;;13.90;99.90;14.20;99699.00;;;;342267;28;83272;-91
2023/05/19 00:53:28;;;;;;;;;;;13.90;99.90;14.20;99694.00;;;;342979;28;91326;-92
2023/05/19 00:53:41;;;;;;;;;;;13.90;99.90;14.20;99694.00;;;;343384;28;83443;-91
2023/05/19 00:53:53;;;;;;;;;;;13.90;99.90;14.20;99701.00;;;;339164;28;88853;-91
2023/05/19 00:54:05;;;;;;;;;;;13.90;99.90;14.20;99698.00;;;;341843;28;83539;-90
2023/05/19 00:54:16;;;;;;;;;;;13.90;99.90;14.20;99696.00;;;;341564;28;91067;-91
2023/05/19 00:54:28;;;;;;;;;;;13.90;99.90;14.20;99701.00;;;;343391;28;82462;-90
2023/05/19 00:54:40;;;;;;;;;;;13.90;99.90;14.10;99695.00;;;;341865;28;88424;-91
2023/05/19 00:54:52;;;;;;;;;;;13.90;99.90;14.20;99701.00;;;;343313;28;83498;-92
2023/05/19 00:55:04;;;;;;;;;;;13.80;99.90;14.20;99694.00;;;;341814;28;89424;-91
2023/05/19 00:55:17;;;;;;;;;;;13.80;99.90;14.10;99698.00;;;;343547;28;82460;-90
2023/05/19 00:55:29;;;;;;;;;;;13.80;99.90;14.20;99694.00;;;;341363;28;92523;-91
2023/05/19 00:55:41;;;;;;;;;;;13.80;99.90;14.30;99701.00;;;;342045;28;82944;-91
2023/05/19 00:55:53;;;;;;;;;;;13.90;99.90;14.20;99697.00;;;;341800;28;89513;-92
2023/05/19 00:56:05;;;;;;;;;;;13.90;99.90;14.10;99692.00;;;;343374;28;83541;-91
2023/05/19 00:56:17;;;;;;;;;;;13.90;99.90;14.10;99694.00;;;;340414;28;89664;-90
2023/05/19 00:56:29;;;;;;;;;;;13.90;99.90;14.20;99693.00;;;;341037;28;82507;-91
2023/05/19 00:56:41;;;;;;;;;;;13.90;99.90;14.20;99695.00;;;;340505;28;89412;-91
2023/05/19 00:56:57;;;;;;;;;;;13.90;99.90;14.30;99690.00;;;;340974;28;83320;-91
2023/05/19 00:57:09;;;;;;;;;;;13.90;99.90;14.30;99705.00;;;;343256;28;88054;-90
2023/05/19 00:57:21;;;;;;;;;;;13.90;99.90;14.40;99699.00;;;;342211;28;82490;-91
2023/05/19 00:57:33;;;;;;;;;;;13.90;99.90;14.40;99701.00;;;;341541;28;91434;-91
2023/05/19 00:57:44;;;;;;;;;;;13.90;99.90;14.40;99701.00;;;;340486;28;83433;-91
2023/05/19 00:57:56;;;;;;;;;;;13.90;99.90;14.30;99699.00;;;;343051;28;89533;-91
2023/05/19 00:58:09;;;;;;;;;;;13.90;99.90;14.20;99698.00;;;;342096;28;82586;-92
2023/05/19 00:58:22;;;;;;;;;;;13.90;99.90;14.30;99703.00;;;;341784;28;89549;-91
2023/05/19 00:58:34;;;;;;;;;;;13.90;99.90;14.30;99700.00;;;;342166;28;82320;-91
2023/05/19 00:58:46;;;;;;;;;;;13.90;99.90;14.30;99697.00;;;;341858;28;88740;-91
2023/05/19 00:58:58;;;;;;;;;;;13.90;99.90;14.30;99689.00;;;;343560;28;82428;-90
2023/05/19 00:59:09;;;;;;;;;;;13.90;99.90;14.30;99703.00;;;;341536;28;91450;-90
2023/05/19 00:59:21;;;;;;;;;;;13.90;99.90;14.30;99703.00;;;;342145;28;83250;-90
2023/05/19 00:59:33;;;;;;;;;;;13.90;99.90;14.30;99692.00;;;;341440;28;91844;-91
2023/05/19 00:59:47;;;;;;;;;;;13.90;99.90;14.30;99702.00;;;;343276;28;83664;-91
2023/05/19 00:59:58;;;;;;;;;;;13.90;99.90;14.30;99695.00;;;;340424;28;88638;-90
2023/05/19 01:00:11;;;;;;;;;;;13.90;99.90;14.30;99704.00;;;;339282;28;83540;-91
2023/05/19 01:00:23;;;;;;;;;;;13.90;99.90;14.40;99699.00;;;;340339;28;88439;-91
2023/05/19 01:00:35;;;;;;;;;;;13.90;99.90;14.40;99695.00;;;;339438;28;82511;-91
2023/05/19 01:00:48;;;;;;;;;;;13.90;99.90;14.30;99701.00;;;;337518;28;88244;-92
2023/05/19 01:01:02;;;;;;;;;;;14.00;99.90;14.30;99686.00;;;;339424;28;82292;-91
2023/05/19 01:01:15;;;;;;;;;;;13.90;99.90;14.20;99694.00;;;;341677;28;89546;-91
2023/05/19 01:01:28;;;;;;;;;;;14.00;99.90;14.20;99695.00;;;;339407;28;83333;-92